Time;durP1;ratioP1;P1;durP2;ratioP2;P2;SDS_P1;SDS_P2;PMS_P1;PMS_P2;Temp;Humidity;BMP_temperature;BMP_pressure;BME280_temperature;BME280_humidity;BME280_pressure;Samples;Min_cycle;Max_cycle;Signal;HPM_P1;HPM_P2
2020/12/01 00:01:56;;;;;;;53.20;26.98;;;1.10;99.90;;;;;;5095419;28;20115;-62
2020/12/01 00:04:22;;;;;;;49.65;25.15;;;1.10;99.90;;;;;;5095119;28;20380;-61
2020/12/01 00:06:48;;;;;;;48.35;26.02;;;0.90;99.90;;;;;;5095590;28;20428;-61
2020/12/01 00:09:14;;;;;;;48.05;27.35;;;1.00;99.90;;;;;;5113535;28;20299;-60
2020/12/01 00:11:40;;;;;;;51.15;25.35;;;1.10;99.90;;;;;;5108332;28;20054;-60
2020/12/01 00:14:06;;;;;;;47.30;25.75;;;1.00;99.90;;;;;;5075284;28;20032;-59
2020/12/01 00:16:32;;;;;;;50.70;25.15;;;0.90;99.90;;;;;;5074260;28;20429;-60
2020/12/01 00:18:59;;;;;;;47.55;25.88;;;0.90;99.90;;;;;;5058565;28;20039;-61
2020/12/01 00:21:25;;;;;;;43.28;24.65;;;0.90;99.90;;;;;;5074891;28;20032;-60
2020/12/01 00:23:51;;;;;;;49.30;26.85;;;0.90;99.90;;;;;;5075447;28;20028;-60
2020/12/01 00:26:18;;;;;;;44.22;24.27;;;0.90;99.90;;;;;;5075604;28;20028;-59
2020/12/01 00:28:45;;;;;;;48.72;24.25;;;0.90;99.90;;;;;;5089552;28;20026;-64
2020/12/01 00:31:10;;;;;;;48.72;24.80;;;1.10;99.90;;;;;;5095634;28;20055;-62
2020/12/01 00:33:36;;;;;;;46.25;24.23;;;0.90;99.90;;;;;;5097205;28;20030;-61
2020/12/01 00:36:03;;;;;;;48.88;23.20;;;0.90;99.90;;;;;;5098783;28;20498;-61
2020/12/01 00:38:29;;;;;;;47.97;25.10;;;0.90;99.90;;;;;;5116120;28;20030;-63
2020/12/01 00:40:55;;;;;;;45.95;22.77;;;0.90;99.90;;;;;;5116349;28;20055;-60
2020/12/01 00:43:21;;;;;;;45.53;25.23;;;0.90;99.90;;;;;;5116458;28;20068;-63
2020/12/01 00:45:47;;;;;;;46.17;23.30;;;0.90;99.90;;;;;;5115588;28;20107;-60
2020/12/01 00:48:14;;;;;;;49.30;23.33;;;0.90;99.90;;;;;;5114983;28;20054;-60
2020/12/01 00:50:39;;;;;;;48.30;23.67;;;1.00;99.90;;;;;;5096075;28;20062;-62
2020/12/01 00:53:05;;;;;;;45.13;23.65;;;1.00;99.90;;;;;;5096439;28;20032;-60
2020/12/01 00:55:31;;;;;;;43.17;24.30;;;1.10;99.90;;;;;;5095214;28;20028;-60
2020/12/01 00:57:57;;;;;;;46.95;23.92;;;1.10;99.90;;;;;;5113664;28;20051;-61
2020/12/01 01:00:26;;;;;;;45.65;25.30;;;1.10;99.90;;;;;;5113349;28;20036;-67
2020/12/01 01:02:52;;;;;;;45.72;23.27;;;1.10;99.90;;;;;;5114070;28;20024;-60
2020/12/01 01:05:18;;;;;;;42.42;24.98;;;1.20;99.90;;;;;;5113847;28;20016;-60
2020/12/01 01:07:43;;;;;;;42.22;22.95;;;1.20;99.90;;;;;;5115249;28;20032;-62
2020/12/01 01:10:25;;;;;;;40.60;23.00;;;1.10;99.90;;;;;;5097530;28;20130;-60
2020/12/01 01:12:50;;;;;;;42.83;22.97;;;1.10;99.90;;;;;;5115581;28;20023;-61
2020/12/01 01:15:16;;;;;;;48.10;25.00;;;1.10;99.90;;;;;;5116020;28;20107;-60
2020/12/01 01:17:42;;;;;;;45.22;23.90;;;1.10;99.90;;;;;;5115395;28;20412;-64
2020/12/01 01:20:10;;;;;;;47.55;23.33;;;1.00;99.90;;;;;;5097653;28;20039;-60
2020/12/01 01:22:36;;;;;;;41.28;23.23;;;1.20;99.90;;;;;;5096614;28;20066;-67
2020/12/01 01:25:03;;;;;;;43.75;24.55;;;1.20;99.90;;;;;;5115637;28;20028;-60
2020/12/01 01:27:29;;;;;;;45.53;24.20;;;1.20;99.90;;;;;;5111388;28;20031;-60
2020/12/01 01:29:54;;;;;;;45.63;24.65;;;1.30;99.90;;;;;;5078451;28;20028;-63
2020/12/01 01:32:20;;;;;;;46.03;24.58;;;1.20;99.90;;;;;;5096604;28;20106;-63
2020/12/01 01:34:46;;;;;;;44.85;22.63;;;1.30;99.90;;;;;;5096399;28;20020;-59
2020/12/01 01:37:12;;;;;;;42.55;21.92;;;1.40;99.90;;;;;;5078852;28;20032;-60
2020/12/01 01:39:38;;;;;;;45.20;24.70;;;1.30;99.90;;;;;;5096996;28;20062;-60
2020/12/01 01:42:08;;;;;;;47.50;24.40;;;1.30;99.90;;;;;;5063555;28;20129;-61
2020/12/01 01:44:36;;;;;;;41.97;21.92;;;1.30;99.90;;;;;;5078764;28;20082;-60
2020/12/01 01:47:29;;;;;;;48.78;27.50;;;1.40;99.90;;;;;;5078029;28;20035;-59
2020/12/01 01:50:12;;;;;;;45.22;23.58;;;1.40;99.90;;;;;;5096588;28;20028;-60
2020/12/01 01:52:40;;;;;;;47.65;25.77;;;1.30;99.90;;;;;;5095756;28;20043;-64
2020/12/01 01:55:12;;;;;;;45.20;23.48;;;1.30;99.90;;;;;;5077727;28;20031;-62
2020/12/01 01:57:40;;;;;;;45.05;24.20;;;1.40;99.90;;;;;;5095435;28;20031;-61
2020/12/01 02:00:33;;;;;;;43.75;23.05;;;1.40;99.90;;;;;;5095462;28;20085;-60
2020/12/01 02:02:59;;;;;;;43.75;24.45;;;1.40;99.90;;;;;;5096167;28;20074;-60
2020/12/01 02:05:25;;;;;;;42.30;22.80;;;1.50;99.90;;;;;;5096200;28;20028;-60
2020/12/01 02:07:51;;;;;;;41.28;23.58;;;1.50;99.90;;;;;;5095640;28;20024;-62
2020/12/01 02:10:17;;;;;;;45.47;25.05;;;1.50;99.90;;;;;;5097545;28;20170;-63
2020/12/01 02:12:45;;;;;;;41.38;22.05;;;1.50;99.90;;;;;;5097863;28;20102;-69
2020/12/01 02:15:11;;;;;;;43.63;23.13;;;1.50;99.90;;;;;;5080577;28;20028;-61
2020/12/01 02:17:38;;;;;;;42.65;22.02;;;1.50;99.90;;;;;;5083945;28;20024;-62
2020/12/01 02:20:13;;;;;;;47.15;25.08;;;1.40;99.90;;;;;;5101596;28;20383;-64
2020/12/01 02:22:48;;;;;;;43.83;23.27;;;1.50;99.90;;;;;;5117848;28;20036;-64
2020/12/01 02:25:17;;;;;;;44.78;22.67;;;1.60;99.90;;;;;;5099887;28;20063;-61
2020/12/01 02:27:51;;;;;;;41.78;23.42;;;1.60;99.90;;;;;;5117538;28;20020;-61
2020/12/01 02:30:17;;;;;;;42.13;23.48;;;1.60;99.90;;;;;;5100121;28;20043;-62
2020/12/01 02:32:42;;;;;;;45.05;26.10;;;1.50;99.90;;;;;;5099959;28;20024;-61
2020/12/01 02:35:10;;;;;;;42.85;24.40;;;1.50;99.90;;;;;;5118903;28;20020;-61
2020/12/01 02:37:38;;;;;;;42.10;23.02;;;1.60;99.90;;;;;;5100497;28;20537;-63
2020/12/01 02:40:09;;;;;;;44.50;23.95;;;1.50;99.90;;;;;;5100331;28;20056;-61
2020/12/01 02:42:34;;;;;;;43.72;22.75;;;1.60;99.90;;;;;;5099855;28;20031;-61
2020/12/01 02:45:00;;;;;;;44.60;25.77;;;1.50;99.90;;;;;;5116840;28;20020;-59
2020/12/01 02:47:27;;;;;;;47.88;24.70;;;1.50;99.90;;;;;;5097568;28;20110;-60
2020/12/01 02:49:53;;;;;;;43.00;23.15;;;1.50;99.90;;;;;;5116202;28;20031;-59
2020/12/01 02:52:20;;;;;;;43.78;24.05;;;1.40;99.90;;;;;;5118099;28;20419;-63
2020/12/01 02:54:47;;;;;;;40.40;23.23;;;1.50;99.90;;;;;;5116919;28;20465;-60
2020/12/01 02:57:13;;;;;;;41.55;20.88;;;1.50;99.90;;;;;;5098176;28;20023;-60
2020/12/01 02:59:39;;;;;;;41.42;22.95;;;1.50;99.90;;;;;;5096953;28;20028;-63
2020/12/01 03:02:05;;;;;;;45.60;24.55;;;1.60;99.90;;;;;;5097719;28;20488;-59
2020/12/01 03:04:31;;;;;;;40.60;23.35;;;1.60;99.90;;;;;;5097115;28;20024;-62
2020/12/01 03:06:56;;;;;;;44.40;24.67;;;1.60;99.90;;;;;;5115613;28;20024;-60
2020/12/01 03:09:22;;;;;;;41.83;23.15;;;1.50;99.90;;;;;;5115222;28;20119;-60
2020/12/01 03:11:49;;;;;;;38.40;22.17;;;1.50;99.90;;;;;;5114702;28;20027;-60
2020/12/01 03:14:15;;;;;;;44.72;23.45;;;1.50;99.90;;;;;;5096505;28;20031;-63
2020/12/01 03:16:40;;;;;;;44.08;25.75;;;1.40;99.90;;;;;;5096225;28;20031;-59
2020/12/01 03:19:06;;;;;;;39.75;22.35;;;1.40;99.90;;;;;;5114610;28;20427;-60
2020/12/01 03:21:32;;;;;;;40.17;22.58;;;1.40;99.90;;;;;;5096528;28;20036;-60
2020/12/01 03:23:58;;;;;;;40.70;21.35;;;1.40;99.90;;;;;;5115379;28;20027;-60
2020/12/01 03:26:23;;;;;;;44.00;24.23;;;1.50;99.90;;;;;;5115672;28;20027;-61
2020/12/01 03:28:49;;;;;;;45.28;23.70;;;1.50;99.90;;;;;;5114155;28;20106;-60
2020/12/01 03:31:17;;;;;;;40.13;21.88;;;1.40;99.90;;;;;;5114945;28;20070;-61
2020/12/01 03:33:43;;;;;;;45.67;24.05;;;1.50;99.90;;;;;;5115413;28;20488;-64
2020/12/01 03:36:09;;;;;;;42.70;24.73;;;1.60;99.90;;;;;;5097342;28;20027;-62
2020/12/01 03:38:35;;;;;;;40.33;22.00;;;1.60;99.90;;;;;;5114295;28;20030;-61
2020/12/01 03:41:00;;;;;;;39.88;22.23;;;1.50;99.90;;;;;;5114304;28;20059;-61
2020/12/01 03:43:26;;;;;;;43.13;23.27;;;1.50;99.90;;;;;;5114376;28;20051;-61
2020/12/01 03:45:52;;;;;;;35.67;20.55;;;1.70;99.90;;;;;;5096002;28;20051;-61
2020/12/01 03:48:18;;;;;;;40.60;21.42;;;1.60;99.90;;;;;;5114033;28;20076;-61
2020/12/01 03:50:43;;;;;;;40.03;21.05;;;1.60;99.90;;;;;;5113616;28;20028;-61
2020/12/01 03:53:09;;;;;;;34.47;19.98;;;1.50;99.90;;;;;;5096573;28;20039;-61
2020/12/01 03:55:35;;;;;;;35.75;20.90;;;1.60;99.90;;;;;;5078684;28;20063;-63
2020/12/01 03:58:01;;;;;;;35.33;20.05;;;1.60;99.90;;;;;;5114515;28;20020;-59
2020/12/01 04:00:29;;;;;;;38.03;22.35;;;1.60;99.90;;;;;;5113998;28;20027;-62
2020/12/01 04:02:55;;;;;;;35.70;20.77;;;1.60;99.90;;;;;;5096225;28;20113;-59
2020/12/01 04:05:24;;;;;;;34.80;20.40;;;1.60;99.90;;;;;;5096573;28;20031;-64
2020/12/01 04:07:53;;;;;;;35.58;20.15;;;1.60;99.90;;;;;;5113892;28;20019;-60
2020/12/01 04:10:21;;;;;;;37.42;20.90;;;1.70;99.90;;;;;;5115618;28;20058;-60
2020/12/01 04:12:47;;;;;;;39.17;22.48;;;1.60;99.90;;;;;;5096727;28;20118;-63
2020/12/01 04:15:15;;;;;;;36.53;20.33;;;1.80;99.90;;;;;;5115262;28;20100;-61
2020/12/01 04:17:40;;;;;;;35.88;20.35;;;1.80;99.90;;;;;;5114542;28;20031;-61
2020/12/01 04:20:07;;;;;;;31.05;18.20;;;1.80;99.90;;;;;;5114934;28;20038;-61
2020/12/01 04:22:34;;;;;;;36.28;20.60;;;1.80;99.90;;;;;;5095986;28;20028;-61
2020/12/01 04:25:00;;;;;;;36.40;20.23;;;1.70;99.90;;;;;;5095878;28;20035;-61
2020/12/01 04:27:26;;;;;;;37.45;21.42;;;1.50;99.90;;;;;;5095745;28;20118;-60
2020/12/01 04:29:52;;;;;;;35.75;20.17;;;1.60;99.90;;;;;;5095243;28;20066;-62
2020/12/01 04:32:18;;;;;;;39.67;21.23;;;1.70;99.90;;;;;;5115416;28;20023;-61
2020/12/01 04:34:43;;;;;;;36.28;20.42;;;1.60;99.90;;;;;;5096258;28;20032;-60
2020/12/01 04:37:10;;;;;;;34.17;20.17;;;1.60;99.90;;;;;;5115168;28;20066;-60
2020/12/01 04:39:35;;;;;;;32.50;18.70;;;1.70;99.90;;;;;;5096230;28;20532;-67
2020/12/01 04:42:04;;;;;;;29.35;17.77;;;1.70;99.90;;;;;;5097098;28;20047;-63
2020/12/01 04:44:36;;;;;;;30.48;18.73;;;1.80;99.90;;;;;;5095889;28;20045;-61
2020/12/01 04:47:21;;;;;;;31.67;20.08;;;1.80;99.90;;;;;;5113370;28;20088;-60
2020/12/01 04:49:54;;;;;;;33.65;19.42;;;1.80;99.90;;;;;;5112781;28;20392;-61
2020/12/01 04:52:40;;;;;;;34.80;18.67;;;1.90;99.90;;;;;;5113004;28;20076;-61
2020/12/01 04:55:08;;;;;;;32.47;18.88;;;1.90;99.90;;;;;;5094852;28;20025;-62
2020/12/01 04:58:00;;;;;;;36.72;20.60;;;1.70;99.90;;;;;;5112824;28;20024;-60
2020/12/01 05:00:41;;;;;;;35.20;20.35;;;1.70;99.90;;;;;;5095898;28;20039;-61
2020/12/01 05:03:27;;;;;;;33.63;18.85;;;1.60;99.90;;;;;;5116161;28;20023;-64
2020/12/01 05:09:05;;;;;;;1086.40;142.95;;;1.80;99.90;;;;;;5092370;28;20027;-68
2020/12/01 05:11:37;;;;;;;126.82;44.53;;;1.80;99.90;;;;;;5099498;28;20521;-68
2020/12/01 05:14:13;;;;;;;;;;;3.90;99.90;;;;;;5100576;28;20092;-60
2020/12/01 05:16:47;;;;;;;54.63;27.27;;;2.90;99.90;;;;;;5100450;28;20435;-67
2020/12/01 05:19:34;;;;;;;46.15;23.55;;;2.20;99.90;;;;;;5116529;28;20532;-60
2020/12/01 05:21:59;;;;;;;40.95;22.65;;;2.10;99.90;;;;;;5115711;28;20032;-60
2020/12/01 05:24:36;;;;;;;38.22;21.60;;;2.00;99.90;;;;;;5116697;28;20484;-60
2020/12/01 05:27:02;;;;;;;37.92;21.67;;;1.80;99.90;;;;;;5115440;28;20531;-60
2020/12/01 05:29:28;;;;;;;40.50;21.98;;;1.70;99.90;;;;;;5116106;28;20063;-60
2020/12/01 05:31:53;;;;;;;36.10;20.35;;;1.80;99.90;;;;;;5116232;28;20110;-60
2020/12/01 05:34:21;;;;;;;38.15;21.60;;;1.90;99.90;;;;;;5116504;28;20038;-60
2020/12/01 05:36:48;;;;;;;41.78;22.67;;;1.90;99.90;;;;;;5097184;28;20380;-60
2020/12/01 05:39:24;;;;;;;40.60;21.85;;;1.90;99.90;;;;;;5097824;28;20032;-60
2020/12/01 05:42:06;;;;;;;42.10;22.27;;;1.90;99.90;;;;;;5097821;28;20090;-60
2020/12/01 05:44:33;;;;;;;39.80;23.42;;;1.90;99.90;;;;;;5116884;28;20362;-60
2020/12/01 05:47:02;;;;;;;38.80;20.75;;;1.90;99.90;;;;;;5097905;28;20042;-60
2020/12/01 05:49:49;;;;;;;34.53;19.77;;;1.90;99.90;;;;;;5099160;28;20031;-65
2020/12/01 05:52:43;;;;;;;39.83;21.77;;;1.90;99.90;;;;;;5098447;28;20031;-62
2020/12/01 05:55:19;;;;;;;41.50;22.58;;;1.90;99.90;;;;;;5078989;28;20039;-61
2020/12/01 05:58:05;;;;;;;40.38;21.55;;;2.00;99.90;;;;;;5097984;28;20015;-61
2020/12/01 06:00:36;;;;;;;33.63;20.27;;;1.90;99.90;;;;;;5098967;28;20043;-61
2020/12/01 06:03:17;;;;;;;32.08;19.48;;;1.80;99.90;;;;;;5116453;28;20023;-60
2020/12/01 06:05:46;;;;;;;38.55;20.83;;;1.80;99.90;;;;;;5115905;28;20362;-62
2020/12/01 06:08:41;;;;;;;37.78;20.33;;;1.80;99.90;;;;;;5098953;28;20383;-62
2020/12/01 06:11:40;;;;;;;38.75;20.67;;;1.80;99.90;;;;;;5090496;28;20096;-60
2020/12/01 06:14:15;;;;;;;36.75;20.52;;;1.90;99.90;;;;;;5097730;28;20476;-61
2020/12/01 06:17:04;;;;;;;34.10;20.45;;;2.00;99.90;;;;;;5116271;28;20024;-68
2020/12/01 06:19:46;;;;;;;35.28;18.23;;;1.90;99.90;;;;;;5097538;28;20044;-60
2020/12/01 06:22:31;;;;;;;38.45;20.52;;;2.10;99.90;;;;;;5116037;28;20020;-62
2020/12/01 06:25:29;;;;;;;31.33;18.38;;;2.10;99.90;;;;;;5115370;28;20030;-61
2020/12/01 06:28:15;;;;;;;33.28;16.98;;;2.00;99.90;;;;;;5115361;28;20181;-60
2020/12/01 06:30:41;;;;;;;32.88;19.10;;;2.00;99.90;;;;;;5115870;28;20453;-66
2020/12/01 06:33:45;;;;;;;35.22;17.38;;;2.00;99.90;;;;;;5115974;28;20023;-61
2020/12/01 06:36:29;;;;;;;36.28;20.80;;;2.10;99.90;;;;;;5097776;28;20023;-60
2020/12/01 06:39:24;;;;;;;32.92;18.42;;;2.10;99.90;;;;;;5096453;28;20031;-62
2020/12/01 06:41:57;;;;;;;32.65;18.30;;;2.00;99.90;;;;;;5114288;28;20039;-61
2020/12/01 06:44:27;;;;;;;30.80;18.02;;;1.90;99.90;;;;;;5116326;28;20027;-62
2020/12/01 06:46:56;;;;;;;36.65;20.33;;;2.00;99.90;;;;;;5097323;28;20034;-62
2020/12/01 06:49:32;;;;;;;35.50;19.05;;;1.90;99.90;;;;;;5117038;28;20072;-62
2020/12/01 06:52:03;;;;;;;33.78;19.02;;;2.00;99.90;;;;;;5116117;28;20107;-68
2020/12/01 06:54:29;;;;;;;38.90;19.60;;;1.90;99.90;;;;;;5099342;28;20023;-61
2020/12/01 06:56:56;;;;;;;36.30;20.75;;;2.00;99.90;;;;;;5116797;28;20093;-61
2020/12/01 06:59:22;;;;;;;33.25;19.45;;;2.00;99.90;;;;;;5097945;28;20027;-65
2020/12/01 07:01:49;;;;;;;34.53;19.10;;;1.90;99.90;;;;;;5097790;28;20499;-64
2020/12/01 07:04:19;;;;;;;35.95;18.48;;;2.10;99.90;;;;;;5098695;28;20427;-63
2020/12/01 07:07:12;;;;;;;32.83;17.85;;;2.10;99.90;;;;;;5098128;28;20024;-63
2020/12/01 07:09:41;;;;;;;38.17;19.45;;;2.10;99.90;;;;;;5098301;28;20043;-61
2020/12/01 07:12:32;;;;;;;33.38;18.50;;;2.00;99.90;;;;;;5087294;28;20028;-64
2020/12/01 07:15:00;;;;;;;34.55;19.45;;;2.00;99.90;;;;;;5096051;28;20035;-61
2020/12/01 07:17:31;;;;;;;31.40;17.83;;;2.00;99.90;;;;;;5077658;28;20107;-63
2020/12/01 07:20:32;;;;;;;31.95;17.92;;;2.00;99.90;;;;;;5094694;28;20063;-61
2020/12/01 07:23:20;;;;;;;32.60;18.17;;;2.00;99.90;;;;;;5094178;28;20086;-63
2020/12/01 07:25:56;;;;;;;33.38;18.73;;;1.80;99.90;;;;;;5076549;28;20028;-63
2020/12/01 07:28:39;;;;;;;30.52;17.77;;;1.90;99.90;;;;;;5095445;28;20081;-61
2020/12/01 07:31:29;;;;;;;31.00;17.67;;;2.00;99.90;;;;;;5076005;28;20249;-65
2020/12/01 07:34:25;;;;;;;29.05;18.42;;;2.00;99.90;;;;;;5077186;28;20119;-63
2020/12/01 07:36:55;;;;;;;36.83;19.67;;;2.00;99.90;;;;;;5076955;28;20476;-62
2020/12/01 07:39:29;;;;;;;33.30;18.92;;;2.10;99.90;;;;;;5077529;28;20077;-68
2020/12/01 07:41:58;;;;;;;29.55;18.73;;;2.10;99.90;;;;;;5104151;28;20107;-60
2020/12/01 07:44:31;;;;;;;38.13;18.85;;;2.10;99.90;;;;;;5115642;28;20031;-62
2020/12/01 07:47:13;;;;;;;29.23;18.48;;;2.10;99.90;;;;;;5114878;28;20066;-64
2020/12/01 07:49:39;;;;;;;;;;;2.30;99.90;;;;;;5116113;28;20118;-63
2020/12/01 07:52:13;;;;;;;34.55;18.60;;;2.10;99.90;;;;;;5114425;28;19947;-63
2020/12/01 07:54:43;;;;;;;35.13;18.20;;;2.20;99.90;;;;;;5114845;28;20042;-63
2020/12/01 07:57:27;;;;;;;31.23;18.17;;;2.20;99.90;;;;;;5095943;28;20034;-63
2020/12/01 07:59:53;;;;;;;32.65;18.33;;;2.20;99.90;;;;;;5093478;28;20038;-65
2020/12/01 08:02:24;;;;;;;30.35;18.95;;;2.40;99.90;;;;;;5109559;28;20044;-61
2020/12/01 08:04:58;;;;;;;;;;;2.30;99.90;;;;;;5112299;28;20469;-62
2020/12/01 08:07:23;;;;;;;28.15;16.35;;;2.30;99.90;;;;;;5081481;28;19910;-61
2020/12/01 08:10:00;;;;;;;32.90;17.25;;;2.30;99.90;;;;;;5102548;28;20411;-64
2020/12/01 08:12:31;;;;;;;33.60;17.63;;;2.30;99.90;;;;;;5090783;28;20124;-63
2020/12/01 08:14:57;;;;;;;38.47;18.40;;;2.40;99.90;;;;;;5112994;28;20076;-63
2020/12/01 08:17:33;;;;;;;31.30;18.27;;;2.40;99.90;;;;;;5089207;28;20032;-61
2020/12/01 08:19:59;;;;;;;32.88;18.05;;;2.40;99.90;;;;;;5085720;28;20128;-61
2020/12/01 08:22:31;;;;;;;32.88;17.10;;;2.40;99.90;;;;;;5098491;28;20045;-61
2020/12/01 08:24:58;;;;;;;;;;;2.30;99.90;;;;;;5109566;28;20124;-64
2020/12/01 08:27:43;;;;;;;33.90;18.65;;;2.30;99.90;;;;;;5098465;28;19915;-61
2020/12/01 08:30:22;;;;;;;34.08;18.55;;;2.40;99.90;;;;;;5085884;28;20591;-62
2020/12/01 08:32:57;;;;;;;33.13;17.27;;;2.40;99.90;;;;;;5079683;28;20388;-67
2020/12/01 08:35:43;;;;;;;31.33;17.85;;;2.60;99.90;;;;;;5104159;28;20028;-64
2020/12/01 08:38:39;;;;;;;32.67;18.38;;;2.60;99.90;;;;;;5101280;28;20529;-62
2020/12/01 08:41:24;;;;;;;31.98;18.25;;;2.50;99.90;;;;;;5077973;28;20084;-64
2020/12/01 08:44:21;;;;;;;27.70;16.58;;;2.20;99.90;;;;;;5112458;28;20030;-65
2020/12/01 08:46:48;;;;;;;34.47;19.27;;;2.30;99.90;;;;;;5072329;28;20043;-61
2020/12/01 08:49:24;;;;;;;31.48;18.58;;;2.20;99.90;;;;;;5089594;28;20031;-61
2020/12/01 08:51:55;;;;;;;33.40;19.02;;;2.40;99.90;;;;;;5108570;28;20031;-62
2020/12/01 08:54:24;;;;;;;31.90;18.77;;;2.30;99.90;;;;;;5095514;28;20059;-61
2020/12/01 08:57:05;;;;;;;33.20;19.10;;;2.30;99.90;;;;;;5112835;28;20032;-60
2020/12/01 08:59:49;;;;;;;34.88;18.48;;;2.30;99.90;;;;;;5095462;28;20019;-61
2020/12/01 09:02:17;;;;;;;34.97;20.15;;;2.30;99.90;;;;;;5114208;28;20115;-61
2020/12/01 09:04:44;;;;;;;34.60;18.65;;;2.40;99.90;;;;;;5096515;28;20024;-61
2020/12/01 09:07:33;;;;;;;36.50;18.17;;;2.50;99.90;;;;;;5095692;28;20130;-62
2020/12/01 09:10:31;;;;;;;35.88;17.85;;;2.50;99.90;;;;;;5095282;28;20039;-67
2020/12/01 09:13:22;;;;;;;33.33;18.05;;;2.30;99.90;;;;;;5114357;28;20051;-60
2020/12/01 09:18:44;;;;;;;34.97;19.15;;;2.30;99.90;;;;;;5115133;28;20027;-65
2020/12/01 09:24:16;;;;;;;32.13;18.60;;;2.40;99.90;;;;;;5090711;28;20100;-62
2020/12/01 09:26:42;;;;;;;31.40;18.23;;;2.30;99.90;;;;;;5096059;28;20027;-66
2020/12/01 09:29:07;;;;;;;30.73;17.52;;;2.40;99.90;;;;;;5079352;28;20460;-61
2020/12/01 09:31:37;;;;;;;30.90;18.05;;;2.50;99.90;;;;;;5114797;28;20106;-62
2020/12/01 09:34:03;;;;;;;40.15;18.38;;;2.50;99.90;;;;;;5114489;28;20092;-61
2020/12/01 09:36:29;;;;;;;33.13;17.13;;;2.40;99.90;;;;;;5114927;28;20027;-61
2020/12/01 09:38:55;;;;;;;47.10;20.95;;;2.60;99.90;;;;;;5114462;28;20047;-65
2020/12/01 09:41:23;;;;;;;30.02;17.67;;;2.50;99.90;;;;;;5091010;28;20086;-60
2020/12/01 09:44:08;;;;;;;31.13;17.90;;;2.40;99.90;;;;;;5075243;28;20032;-61
2020/12/01 09:46:49;;;;;;;31.02;19.85;;;2.30;99.90;;;;;;5093311;28;20028;-64
2020/12/01 09:49:15;;;;;;;29.38;17.60;;;2.40;99.90;;;;;;5034005;28;20046;-66
2020/12/01 09:51:49;;;;;;;28.67;17.73;;;2.50;99.90;;;;;;5017777;28;20088;-62
2020/12/01 09:54:38;;;;;;;32.78;17.55;;;2.40;99.90;;;;;;5002041;28;20041;-63
2020/12/01 09:57:13;;;;;;;33.70;17.80;;;2.40;99.90;;;;;;5033771;28;20052;-60
2020/12/01 10:07:42;;;;;;;33.00;18.63;;;2.60;99.90;;;;;;5034158;28;20033;-65
2020/12/01 10:12:46;;;;;;;36.15;17.77;;;2.60;99.90;;;;;;5049007;28;20143;-62
2020/12/01 10:35:44;;;;;;;34.85;17.58;;;2.60;99.90;;;;;;5115653;28;20024;-61
2020/12/01 10:38:10;;;;;;;30.90;18.27;;;2.90;99.90;;;;;;5115204;28;20141;-62
2020/12/01 10:40:36;;;;;;;32.97;17.77;;;2.90;99.90;;;;;;5114822;28;20051;-62
2020/12/01 10:43:02;;;;;;;32.55;19.15;;;2.90;99.90;;;;;;5092520;28;20457;-62
2020/12/01 10:45:29;;;;;;;30.08;17.88;;;3.00;99.90;;;;;;5075754;28;20020;-61
2020/12/01 10:47:56;;;;;;;33.90;17.63;;;2.80;99.90;;;;;;5076624;28;20108;-71
2020/12/01 10:50:25;;;;;;;30.60;18.20;;;2.80;99.90;;;;;;5076692;28;20038;-61
2020/12/01 10:52:51;;;;;;;34.75;18.80;;;2.50;99.90;;;;;;5076800;28;20024;-62
2020/12/01 10:55:22;;;;;;;31.05;19.38;;;2.50;99.90;;;;;;5095515;28;20035;-62
2020/12/01 10:57:50;;;;;;;32.17;17.65;;;2.40;99.90;;;;;;5077935;28;20047;-65
2020/12/01 11:00:24;;;;;;;28.47;17.30;;;2.50;99.90;;;;;;5093378;28;20060;-60
2020/12/01 11:02:50;;;;;;;30.02;18.13;;;2.60;99.90;;;;;;5074452;28;20040;-61
2020/12/01 11:05:20;;;;;;;32.65;18.17;;;2.70;99.90;;;;;;5073878;28;20597;-61
2020/12/01 11:07:46;;;;;;;36.33;19.10;;;2.60;99.90;;;;;;5091158;28;20085;-61
2020/12/01 11:10:12;;;;;;;31.88;17.55;;;2.90;99.90;;;;;;5074613;28;20036;-60
2020/12/01 11:12:38;;;;;;;36.25;19.27;;;2.80;99.90;;;;;;5108082;28;20164;-66
2020/12/01 11:15:04;;;;;;;37.67;20.73;;;2.80;99.90;;;;;;5095959;28;20035;-62
2020/12/01 11:17:30;;;;;;;33.35;19.23;;;2.90;99.90;;;;;;5115255;28;20020;-63
2020/12/01 11:19:56;;;;;;;30.85;18.13;;;2.90;99.90;;;;;;5096285;28;20372;-61
2020/12/01 11:22:22;;;;;;;32.15;19.27;;;2.80;99.90;;;;;;5097051;28;20023;-61
2020/12/01 11:24:48;;;;;;;34.95;20.40;;;2.80;99.90;;;;;;5114629;28;20478;-63
2020/12/01 11:27:14;;;;;;;30.77;20.08;;;2.90;99.90;;;;;;5096484;28;20027;-60
2020/12/01 11:29:39;;;;;;;38.35;18.70;;;2.80;99.90;;;;;;5096803;28;20028;-60
2020/12/01 11:32:05;;;;;;;31.23;18.55;;;2.80;99.90;;;;;;5096415;28;20028;-60
2020/12/01 11:34:31;;;;;;;34.78;19.67;;;2.90;99.90;;;;;;5096599;28;20055;-61
2020/12/01 11:36:58;;;;;;;36.63;21.42;;;2.90;99.90;;;;;;5114815;28;20426;-62
2020/12/01 11:39:24;;;;;;;29.15;16.75;;;2.70;99.90;;;;;;5096049;28;20032;-64
2020/12/01 11:41:50;;;;;;;31.42;18.55;;;2.70;99.90;;;;;;5096583;28;20055;-61
2020/12/01 11:44:17;;;;;;;31.17;18.27;;;2.80;99.90;;;;;;5113058;28;20027;-61
2020/12/01 11:46:43;;;;;;;32.85;19.83;;;2.80;99.90;;;;;;5114392;28;20043;-61
2020/12/01 11:49:09;;;;;;;29.40;17.70;;;2.60;99.90;;;;;;5113949;28;20045;-60
2020/12/01 11:51:36;;;;;;;29.27;18.17;;;2.80;99.90;;;;;;5113078;28;20027;-61
2020/12/01 11:54:03;;;;;;;27.10;16.10;;;2.90;99.90;;;;;;5094985;28;20081;-61
2020/12/01 11:56:29;;;;;;;32.05;19.08;;;3.00;99.90;;;;;;5112865;28;20027;-61
2020/12/01 11:58:55;;;;;;;28.33;16.70;;;3.10;99.90;;;;;;5094331;28;20034;-60
2020/12/01 12:01:24;;;;;;;34.03;17.83;;;3.10;99.90;;;;;;5111390;28;20388;-61
2020/12/01 12:03:49;;;;;;;27.48;17.30;;;3.10;99.90;;;;;;5112559;28;20119;-62
2020/12/01 12:06:21;;;;;;;27.83;16.63;;;3.20;99.90;;;;;;5111948;28;20064;-61
2020/12/01 12:08:47;;;;;;;30.90;17.65;;;3.00;99.90;;;;;;5094977;28;20028;-62
2020/12/01 12:11:13;;;;;;;36.15;18.02;;;3.10;99.90;;;;;;5093663;28;20038;-60
2020/12/01 12:13:39;;;;;;;28.67;16.80;;;3.10;99.90;;;;;;5098294;28;20024;-60
2020/12/01 12:16:05;;;;;;;32.95;17.23;;;3.00;99.90;;;;;;5073953;28;20123;-61
2020/12/01 12:18:31;;;;;;;30.40;18.13;;;3.10;99.90;;;;;;5093829;28;20104;-61
2020/12/01 12:20:56;;;;;;;32.97;18.95;;;3.20;99.90;;;;;;5075678;28;20039;-61
2020/12/01 12:23:24;;;;;;;28.27;17.00;;;3.20;99.90;;;;;;5093258;28;20024;-61
2020/12/01 12:25:50;;;;;;;31.33;17.90;;;3.20;99.90;;;;;;5075353;28;20081;-61
2020/12/01 12:28:16;;;;;;;34.88;17.88;;;3.10;99.90;;;;;;5074700;28;20109;-61
2020/12/01 12:30:44;;;;;;;31.05;17.55;;;3.20;99.90;;;;;;5094319;28;20028;-62
2020/12/01 12:33:09;;;;;;;28.65;17.55;;;2.90;99.90;;;;;;5092758;28;20024;-61
2020/12/01 12:35:35;;;;;;;32.75;19.42;;;2.90;99.90;;;;;;5073431;28;20046;-60
2020/12/01 12:38:01;;;;;;;29.55;18.02;;;2.90;99.90;;;;;;5055781;28;20030;-67
2020/12/01 12:40:27;;;;;;;34.20;18.60;;;3.20;99.90;;;;;;5071957;28;20105;-61
2020/12/01 12:42:53;;;;;;;32.65;19.40;;;3.00;99.90;;;;;;5098615;28;20024;-61
2020/12/01 12:45:18;;;;;;;35.00;18.17;;;2.90;99.90;;;;;;5110579;28;20024;-61
2020/12/01 12:47:44;;;;;;;28.48;18.38;;;3.00;99.90;;;;;;5093127;28;20036;-62
2020/12/01 12:50:10;;;;;;;30.95;17.05;;;3.10;99.90;;;;;;5110768;28;20035;-61
2020/12/01 12:52:36;;;;;;;33.25;17.60;;;3.20;99.90;;;;;;5092897;28;20023;-62
2020/12/01 12:55:03;;;;;;;32.33;16.75;;;3.30;99.90;;;;;;5111129;28;20072;-62
2020/12/01 12:57:29;;;;;;;33.17;18.65;;;3.40;99.90;;;;;;5111142;28;20055;-61
2020/12/01 12:59:54;;;;;;;32.42;17.50;;;3.40;99.90;;;;;;5111325;28;20059;-60
2020/12/01 13:02:20;;;;;;;36.80;18.20;;;3.50;99.90;;;;;;5110588;28;20024;-62
2020/12/01 13:04:46;;;;;;;31.80;18.70;;;3.50;99.90;;;;;;5092861;28;20027;-62
2020/12/01 13:07:12;;;;;;;31.80;19.40;;;3.30;99.90;;;;;;5092084;28;20118;-62
2020/12/01 13:09:37;;;;;;;31.08;19.17;;;3.30;99.90;;;;;;5092768;28;20039;-63
2020/12/01 13:12:03;;;;;;;29.23;17.63;;;3.40;99.90;;;;;;5092609;28;20030;-67
2020/12/01 13:14:29;;;;;;;39.55;19.92;;;3.40;99.90;;;;;;5111145;28;20232;-62
2020/12/01 13:16:55;;;;;;;33.47;19.45;;;3.40;99.90;;;;;;5088197;28;20039;-61
2020/12/01 13:19:21;;;;;;;36.13;20.83;;;3.50;99.90;;;;;;5087696;28;20485;-62
2020/12/01 13:21:47;;;;;;;37.38;20.45;;;3.50;99.90;;;;;;5088178;28;20156;-61
2020/12/01 13:24:14;;;;;;;32.50;18.83;;;3.50;99.90;;;;;;5091287;28;20421;-62
2020/12/01 13:26:40;;;;;;;29.50;16.95;;;3.60;99.90;;;;;;5074770;28;20040;-60
2020/12/01 13:29:06;;;;;;;42.42;18.75;;;3.60;99.90;;;;;;5091212;28;20108;-61
2020/12/01 13:31:32;;;;;;;42.35;19.25;;;3.70;99.90;;;;;;5092094;28;20043;-60
2020/12/01 13:33:58;;;;;;;41.03;19.80;;;3.70;99.90;;;;;;5075021;28;20020;-60
2020/12/01 13:36:25;;;;;;;35.20;18.58;;;3.70;99.90;;;;;;5091014;28;20101;-61